Paula-c — 2AHU2 — position and weather

sailwx.info

Track history (hours):
 
Tides and Currents Weather Stations Pressure Air Temp Water Temp Dewpoint Dewpoint Depression Visibility Wind Speed Wind Dir Waves Ship Positions

Paula-c

Last reported at 2017-Nov-16 17:18 UTC. Time now 2017-Nov-18 02:59 UTC.
Position N 37°40' W 000°25'.

Length 90 m; draft 6.6 m.

Type: Cargo ship. MMSI: 235059765.

Date/timePositionNaut miles runAvg speedWind from/ knotsBaromVisibWave heightAir tempDewpointWater temp
2017-Nov-16 17:18N 37°40' W 000°25'1710.9
2017-Nov-16 15:44N 37°27' W 000°39'411.0
2017-Nov-16 15:22N 37°24' W 000°43'411.0
2017-Nov-16 15:00N 37°22' W 000°47'611.1
2017-Nov-16 14:26N 37°18' W 000°53'22310.2
2017-Nov-15 16:32N 36°05' W 005°16'010.5
2017-Nov-15 16:30N 36°05' W 005°17'8 1.0
2017-Nov-15 08:45N 35°59' W 005°24'210.4
2017-Nov-15 08:30N 35°58' W 005°26'244 8.8
2017-Nov-14 04:37N 37°58' W 009°53'110.8
2017-Nov-14 04:30N 37°59' W 009°53'3110.5
2017-Nov-14 01:35N 38°29' W 010°01'1 9.9
2017-Nov-14 01:29N 38°30' W 010°01'5 9.8
2017-Nov-14 01:00N 38°35' W 010°03'1610.0
2017-Nov-13 23:26N 38°50' W 010°05'510.0
2017-Nov-13 22:56N 38°55' W 010°05'1410.2
2017-Nov-13 21:31N 39°10' W 010°05'  
2017-Nov-11 11:41N 47°25' W 006°41'162 8.4
2017-Nov-10 16:20N 49°47' W 004°45'710.5
2017-Nov-10 15:38N 49°53' W 004°38'110.8
2017-Nov-10 15:30N 49°54' W 004°37'510.6
2017-Nov-10 15:00N 49°59' W 004°33'510.7
2017-Nov-10 14:30N 50°03' W 004°28'510.6
2017-Nov-10 14:00N 50°07' W 004°23'510.8
2017-Nov-10 13:30N 50°12' W 004°18'510.4
2017-Nov-10 13:00N 50°16' W 004°13'5 9.9
2017-Nov-10 12:30N 50°20' W 004°10'2 4.0
2017-Nov-10 12:00N 50°22' W 004°08'0 0.0
2017-Nov-10 11:29N 50°22' W 004°08'0 0.0
2017-Nov-10 10:59N 50°22' W 004°08'0 0.0
2017-Nov-10 10:29N 50°22' W 004°08'0 0.0
2017-Nov-10 09:59N 50°22' W 004°08'0 0.0
2017-Nov-10 09:29N 50°22' W 004°08'0 0.0
2017-Nov-10 08:59N 50°22' W 004°08'0 0.0
2017-Nov-10 08:29N 50°22' W 004°08'0 0.0
2017-Nov-10 07:59N 50°22' W 004°08'0 0.3
2017-Nov-10 07:30N 50°22' W 004°08'4 7.1
2017-Nov-10 07:00N 50°19' W 004°10'3 5.2
2017-Nov-10 06:31N 50°17' W 004°07'3 5.0
2017-Nov-10 06:00N 50°16' W 004°04'3 5.2
2017-Nov-10 05:31N 50°14' W 004°00'3 5.2
2017-Nov-10 05:01N 50°13' W 003°57'3 5.2
2017-Nov-10 04:30N 50°12' W 003°54'3 6.0
2017-Nov-10 04:00N 50°10' W 003°50'4 8.1
2017-Nov-10 03:31N 50°09' W 003°43'4 8.2
2017-Nov-10 03:01N 50°10' W 003°37'4 8.4
2017-Nov-10 02:30N 50°11' W 003°31'4 8.4
2017-Nov-10 02:00N 50°13' W 003°25'4 8.5
2017-Nov-10 01:30N 50°14' W 003°19'4 8.6
2017-Nov-10 01:01N 50°16' W 003°12'5 9.0
2017-Nov-10 00:30N 50°17' W 003°06'4 8.9
2017-Nov-10 00:01N 50°18' W 002°59'4 8.8
2017-Nov-09 23:30N 50°20' W 002°52'4 8.6
2017-Nov-09 23:00N 50°21' W 002°46'4 8.6
2017-Nov-09 22:31N 50°23' W 002°40'4 8.4
2017-Nov-09 22:00N 50°25' W 002°34'4 8.8
2017-Nov-09 21:30N 50°26' W 002°27'7 8.4
2017-Nov-09 20:40N 50°29' W 002°17'11 8.6
2017-Nov-09 19:26N 50°33' W 002°02'4 9.4
2017-Nov-09 19:00N 50°35' W 001°56'4 8.7
2017-Nov-09 18:30N 50°39' W 001°55'4 8.9
2017-Nov-09 18:00N 50°43' W 001°59'0 0.2
2017-Nov-09 17:28N 50°43' W 001°59'0 0.0
2017-Nov-09 16:58N 50°43' W 001°59'0 0.0
2017-Nov-09 16:28N 50°43' W 001°59'0 0.0
2017-Nov-09 15:58N 50°43' W 001°59'0 0.0
2017-Nov-09 15:28N 50°43' W 001°59'0 0.0
2017-Nov-09 14:58N 50°43' W 001°59'0 0.0
2017-Nov-09 14:28N 50°43' W 001°59'0 0.0
2017-Nov-09 13:58N 50°43' W 001°59'0 0.0
2017-Nov-09 13:28N 50°43' W 001°59'0 0.0
2017-Nov-09 12:58N 50°43' W 001°59'0 0.0
2017-Nov-09 12:28N 50°43' W 001°59'0 0.0
2017-Nov-09 11:58N 50°43' W 001°59'0 0.0
2017-Nov-09 11:28N 50°43' W 001°59'0 0.0
2017-Nov-09 10:58N 50°43' W 001°59'0 0.0
2017-Nov-09 10:28N 50°43' W 001°59'0 0.0
2017-Nov-09 09:58N 50°43' W 001°59'0 0.0
2017-Nov-09 09:28N 50°43' W 001°59'0 0.0
2017-Nov-09 08:58N 50°43' W 001°59'0 0.0
2017-Nov-09 08:28N 50°43' W 001°59'0 0.0
2017-Nov-09 07:58N 50°43' W 001°59'0 0.0
2017-Nov-09 07:28N 50°43' W 001°59'0 0.0
2017-Nov-09 06:49N 50°43' W 001°59'0 0.0
2017-Nov-09 06:28N 50°43' W 001°59'0 0.0
2017-Nov-09 05:58N 50°43' W 001°59'0 0.0
2017-Nov-09 05:28N 50°43' W 001°59'0 0.0
2017-Nov-09 04:58N 50°43' W 001°59'0 0.0
2017-Nov-09 04:28N 50°43' W 001°59'0 0.0
2017-Nov-09 03:58N 50°43' W 001°59'0 0.0
2017-Nov-09 03:28N 50°43' W 001°59'0 0.0
2017-Nov-09 02:58N 50°43' W 001°59'0 0.0
2017-Nov-09 02:28N 50°43' W 001°59'0 0.0
2017-Nov-09 01:58N 50°43' W 001°59'0 0.0
2017-Nov-09 01:28N 50°43' W 001°59'0 0.0
2017-Nov-09 00:58N 50°43' W 001°59'0 0.0
2017-Nov-09 00:28N 50°43' W 001°59'0 0.0
2017-Nov-08 23:58N 50°43' W 001°59'0 0.0
2017-Nov-08 23:28N 50°43' W 001°59'0 0.0
2017-Nov-08 22:55N 50°43' W 001°59'0 0.0
2017-Nov-08 22:28N 50°43' W 001°59'0 0.0
2017-Nov-08 21:58N 50°43' W 001°59'0 0.0
2017-Nov-08 21:28N 50°43' W 001°59'0 0.0
2017-Nov-08 20:58N 50°43' W 001°59'0 0.0
2017-Nov-08 20:28N 50°43' W 001°59'0 0.0
2017-Nov-08 19:58N 50°43' W 001°59'0 0.0
2017-Nov-08 19:28N 50°43' W 001°59'0 0.0
2017-Nov-08 18:58N 50°43' W 001°59'0 0.0
2017-Nov-08 18:28N 50°43' W 001°59'0 0.0
2017-Nov-08 17:58N 50°43' W 001°59'0 0.0
2017-Nov-08 17:28N 50°43' W 001°59'0 0.0
2017-Nov-08 16:58N 50°43' W 001°59'0 0.0
2017-Nov-08 16:28N 50°43' W 001°59'0 0.0
2017-Nov-08 15:58N 50°43' W 001°59'0 0.0
2017-Nov-08 15:28N 50°43' W 001°59'0 0.0
2017-Nov-08 14:58N 50°43' W 001°59'0 0.0
2017-Nov-08 14:28N 50°43' W 001°59'0 0.0
2017-Nov-08 13:58N 50°43' W 001°59'0 0.0
2017-Nov-08 13:28N 50°43' W 001°59'0 0.0
2017-Nov-08 12:58N 50°43' W 001°59'0 0.0
2017-Nov-08 12:28N 50°43' W 001°59'0 0.0
2017-Nov-08 11:58N 50°43' W 001°59'0 0.0
2017-Nov-08 11:28N 50°43' W 001°59'0 0.0
2017-Nov-08 10:58N 50°43' W 001°59'0 0.0
2017-Nov-08 10:25N 50°43' W 001°59'0 0.0
2017-Nov-08 09:52N 50°43' W 001°59'0 0.0
2017-Nov-08 09:28N 50°43' W 001°59'0 0.0
2017-Nov-08 08:58N 50°43' W 001°59'0 0.0
2017-Nov-08 08:25N 50°43' W 001°59'0 0.0
2017-Nov-08 07:58N 50°43' W 001°59'0 0.0
2017-Nov-08 07:28N 50°43' W 001°59'0 0.0
2017-Nov-08 06:58N 50°43' W 001°59'0 0.0
2017-Nov-08 06:28N 50°43' W 001°59'0 0.0
2017-Nov-08 05:58N 50°43' W 001°59'0 0.0
2017-Nov-08 05:28N 50°43' W 001°59'0 0.0
2017-Nov-08 04:58N 50°43' W 001°59'0 0.0
2017-Nov-08 04:25N 50°43' W 001°59'0 0.0
2017-Nov-08 03:58N 50°43' W 001°59'0 0.0
2017-Nov-08 03:28N 50°43' W 001°59'0 0.0
2017-Nov-08 02:58N 50°43' W 001°59'0 0.0
2017-Nov-08 02:28N 50°43' W 001°59'0 0.0
2017-Nov-08 01:58N 50°43' W 001°59'0 0.0
2017-Nov-08 01:28N 50°43' W 001°59'0 0.0
2017-Nov-08 00:58N 50°43' W 001°59'0 0.0
2017-Nov-08 00:28N 50°43' W 001°59'0 0.0
2017-Nov-07 23:58N 50°43' W 001°59'0 0.0
2017-Nov-07 23:28N 50°43' W 001°59'0 0.0
2017-Nov-07 22:58N 50°43' W 001°59'0 0.0
2017-Nov-07 22:28N 50°43' W 001°59'0 0.0
2017-Nov-07 21:55N 50°43' W 001°59'0 0.0
2017-Nov-07 21:28N 50°43' W 001°59'0 0.0
2017-Nov-07 20:58N 50°43' W 001°59'0 0.0
2017-Nov-07 20:28N 50°43' W 001°59'0 0.0
2017-Nov-07 19:58N 50°43' W 001°59'0 0.0
2017-Nov-07 19:28N 50°43' W 001°59'0 0.0
2017-Nov-07 18:58N 50°43' W 001°59'0 0.0
2017-Nov-07 18:28N 50°43' W 001°59'0 0.0
2017-Nov-07 17:58N 50°43' W 001°59'0 0.0
2017-Nov-07 17:28N 50°43' W 001°59'0 0.0
2017-Nov-07 16:55N 50°43' W 001°59'0 0.0
2017-Nov-07 16:22N 50°43' W 001°59'0 0.0
2017-Nov-07 15:49N 50°43' W 001°59'0 0.0
2017-Nov-07 15:28N 50°43' W 001°59'0 0.0
2017-Nov-07 14:58N 50°43' W 001°59'0 0.0
2017-Nov-07 14:28N 50°43' W 001°59'0 0.0
2017-Nov-07 13:58N 50°43' W 001°59'0 0.0
2017-Nov-07 13:28N 50°43' W 001°59'0 0.0
2017-Nov-07 12:58N 50°43' W 001°59'0 0.0
2017-Nov-07 12:22N 50°43' W 001°59'0 0.0
2017-Nov-07 11:58N 50°43' W 001°59'0 0.0
2017-Nov-07 11:22N 50°43' W 001°59'0 0.0
2017-Nov-07 10:55N 50°43' W 001°59'0 0.0
2017-Nov-07 10:28N 50°43' W 001°59'0 0.2
2017-Nov-07 10:00N 50°43' W 001°59'2 4.0
2017-Nov-07 09:30N 50°41' W 001°57'4 8.3
2017-Nov-07 09:00N 50°37' W 001°54'611.6
2017-Nov-07 08:30N 50°33' W 001°60'2210.1
2017-Nov-07 06:19N 50°26' W 002°33'3 9.7
2017-Nov-07 06:01N 50°25' W 002°37'5 9.6
2017-Nov-07 05:31N 50°24' W 002°44'5 9.6
2017-Nov-07 05:00N 50°22' W 002°52'5 9.6
2017-Nov-07 04:30N 50°20' W 002°59'5 9.7
2017-Nov-07 04:00N 50°19' W 003°06'5 9.7
2017-Nov-07 03:30N 50°17' W 003°13'5 9.8
2017-Nov-07 03:00N 50°15' W 003°20'5 9.7
2017-Nov-07 02:30N 50°13' W 003°27'5 9.7
2017-Nov-07 02:00N 50°12' W 003°34'5 9.2
2017-Nov-07 01:30N 50°10' W 003°41'5 9.3
2017-Nov-07 01:00N 50°09' W 003°48'5 9.9
2017-Nov-07 00:28N 50°07' W 003°55'510.0
2017-Nov-07 00:01N 50°06' W 004°02'510.1
2017-Nov-06 23:30N 50°05' W 004°10'510.0
2017-Nov-06 23:00N 50°03' W 004°18'  
Track history (hours):
 
Tides and Currents Weather Stations Pressure Air Temp Water Temp Dewpoint Dewpoint Depression Visibility Wind Speed Wind Dir Waves Ship Positions

Paula-c

Last reported at 2017-Nov-16 17:18 UTC. Time now 2017-Nov-18 02:59 UTC.
Position N 37°40' W 000°25'.

Length 90 m; draft 6.6 m.

Type: Cargo ship. MMSI: 235059765.

Date/timePositionNaut miles runAvg speedWind from/ knotsBaromVisibWave heightAir tempDewpointWater temp
2017-Nov-16 17:18N 37°40' W 000°25'1710.9
2017-Nov-16 15:44N 37°27' W 000°39'411.0
2017-Nov-16 15:22N 37°24' W 000°43'411.0
2017-Nov-16 15:00N 37°22' W 000°47'611.1
2017-Nov-16 14:26N 37°18' W 000°53'22310.2
2017-Nov-15 16:32N 36°05' W 005°16'010.5
2017-Nov-15 16:30N 36°05' W 005°17'8 1.0
2017-Nov-15 08:45N 35°59' W 005°24'210.4
2017-Nov-15 08:30N 35°58' W 005°26'244 8.8
2017-Nov-14 04:37N 37°58' W 009°53'110.8
2017-Nov-14 04:30N 37°59' W 009°53'3110.5
2017-Nov-14 01:35N 38°29' W 010°01'1 9.9
2017-Nov-14 01:29N 38°30' W 010°01'5 9.8
2017-Nov-14 01:00N 38°35' W 010°03'1610.0
2017-Nov-13 23:26N 38°50' W 010°05'510.0
2017-Nov-13 22:56N 38°55' W 010°05'1410.2
2017-Nov-13 21:31N 39°10' W 010°05'  
2017-Nov-11 11:41N 47°25' W 006°41'162 8.4
2017-Nov-10 16:20N 49°47' W 004°45'710.5
2017-Nov-10 15:38N 49°53' W 004°38'110.8
2017-Nov-10 15:30N 49°54' W 004°37'510.6
2017-Nov-10 15:00N 49°59' W 004°33'510.7
2017-Nov-10 14:30N 50°03' W 004°28'510.6
2017-Nov-10 14:00N 50°07' W 004°23'510.8
2017-Nov-10 13:30N 50°12' W 004°18'510.4
2017-Nov-10 13:00N 50°16' W 004°13'5 9.9
2017-Nov-10 12:30N 50°20' W 004°10'2 4.0
2017-Nov-10 12:00N 50°22' W 004°08'0 0.0
2017-Nov-10 11:29N 50°22' W 004°08'0 0.0
2017-Nov-10 10:59N 50°22' W 004°08'0 0.0
2017-Nov-10 10:29N 50°22' W 004°08'0 0.0
2017-Nov-10 09:59N 50°22' W 004°08'0 0.0
2017-Nov-10 09:29N 50°22' W 004°08'0 0.0
2017-Nov-10 08:59N 50°22' W 004°08'0 0.0
2017-Nov-10 08:29N 50°22' W 004°08'0 0.0
2017-Nov-10 07:59N 50°22' W 004°08'0 0.3
2017-Nov-10 07:30N 50°22' W 004°08'4 7.1
2017-Nov-10 07:00N 50°19' W 004°10'3 5.2
2017-Nov-10 06:31N 50°17' W 004°07'3 5.0
2017-Nov-10 06:00N 50°16' W 004°04'3 5.2
2017-Nov-10 05:31N 50°14' W 004°00'3 5.2
2017-Nov-10 05:01N 50°13' W 003°57'3 5.2
2017-Nov-10 04:30N 50°12' W 003°54'3 6.0
2017-Nov-10 04:00N 50°10' W 003°50'4 8.1
2017-Nov-10 03:31N 50°09' W 003°43'4 8.2
2017-Nov-10 03:01N 50°10' W 003°37'4 8.4
2017-Nov-10 02:30N 50°11' W 003°31'4 8.4
2017-Nov-10 02:00N 50°13' W 003°25'4 8.5
2017-Nov-10 01:30N 50°14' W 003°19'4 8.6
2017-Nov-10 01:01N 50°16' W 003°12'5 9.0
2017-Nov-10 00:30N 50°17' W 003°06'4 8.9
2017-Nov-10 00:01N 50°18' W 002°59'4 8.8
2017-Nov-09 23:30N 50°20' W 002°52'4 8.6
2017-Nov-09 23:00N 50°21' W 002°46'4 8.6
2017-Nov-09 22:31N 50°23' W 002°40'4 8.4
2017-Nov-09 22:00N 50°25' W 002°34'4 8.8
2017-Nov-09 21:30N 50°26' W 002°27'7 8.4
2017-Nov-09 20:40N 50°29' W 002°17'11 8.6
2017-Nov-09 19:26N 50°33' W 002°02'4 9.4
2017-Nov-09 19:00N 50°35' W 001°56'4 8.7
2017-Nov-09 18:30N 50°39' W 001°55'4 8.9
2017-Nov-09 18:00N 50°43' W 001°59'0 0.2
2017-Nov-09 17:28N 50°43' W 001°59'0 0.0
2017-Nov-09 16:58N 50°43' W 001°59'0 0.0
2017-Nov-09 16:28N 50°43' W 001°59'0 0.0
2017-Nov-09 15:58N 50°43' W 001°59'0 0.0
2017-Nov-09 15:28N 50°43' W 001°59'0 0.0
2017-Nov-09 14:58N 50°43' W 001°59'0 0.0
2017-Nov-09 14:28N 50°43' W 001°59'0 0.0
2017-Nov-09 13:58N 50°43' W 001°59'0 0.0
2017-Nov-09 13:28N 50°43' W 001°59'0 0.0
2017-Nov-09 12:58N 50°43' W 001°59'0 0.0
2017-Nov-09 12:28N 50°43' W 001°59'0 0.0
2017-Nov-09 11:58N 50°43' W 001°59'0 0.0
2017-Nov-09 11:28N 50°43' W 001°59'0 0.0
2017-Nov-09 10:58N 50°43' W 001°59'0 0.0
2017-Nov-09 10:28N 50°43' W 001°59'0 0.0
2017-Nov-09 09:58N 50°43' W 001°59'0 0.0
2017-Nov-09 09:28N 50°43' W 001°59'0 0.0
2017-Nov-09 08:58N 50°43' W 001°59'0 0.0
2017-Nov-09 08:28N 50°43' W 001°59'0 0.0
2017-Nov-09 07:58N 50°43' W 001°59'0 0.0
2017-Nov-09 07:28N 50°43' W 001°59'0 0.0
2017-Nov-09 06:49N 50°43' W 001°59'0 0.0
2017-Nov-09 06:28N 50°43' W 001°59'0 0.0
2017-Nov-09 05:58N 50°43' W 001°59'0 0.0
2017-Nov-09 05:28N 50°43' W 001°59'0 0.0
2017-Nov-09 04:58N 50°43' W 001°59'0 0.0
2017-Nov-09 04:28N 50°43' W 001°59'0 0.0
2017-Nov-09 03:58N 50°43' W 001°59'0 0.0
2017-Nov-09 03:28N 50°43' W 001°59'0 0.0
2017-Nov-09 02:58N 50°43' W 001°59'0 0.0
2017-Nov-09 02:28N 50°43' W 001°59'0 0.0
2017-Nov-09 01:58N 50°43' W 001°59'0 0.0
2017-Nov-09 01:28N 50°43' W 001°59'0 0.0
2017-Nov-09 00:58N 50°43' W 001°59'0 0.0
2017-Nov-09 00:28N 50°43' W 001°59'0 0.0
2017-Nov-08 23:58N 50°43' W 001°59'0 0.0
2017-Nov-08 23:28N 50°43' W 001°59'0 0.0
2017-Nov-08 22:55N 50°43' W 001°59'0 0.0
2017-Nov-08 22:28N 50°43' W 001°59'0 0.0
2017-Nov-08 21:58N 50°43' W 001°59'0 0.0
2017-Nov-08 21:28N 50°43' W 001°59'0 0.0
2017-Nov-08 20:58N 50°43' W 001°59'0 0.0
2017-Nov-08 20:28N 50°43' W 001°59'0 0.0
2017-Nov-08 19:58N 50°43' W 001°59'0 0.0
2017-Nov-08 19:28N 50°43' W 001°59'0 0.0
2017-Nov-08 18:58N 50°43' W 001°59'0 0.0
2017-Nov-08 18:28N 50°43' W 001°59'0 0.0
2017-Nov-08 17:58N 50°43' W 001°59'0 0.0
2017-Nov-08 17:28N 50°43' W 001°59'0 0.0
2017-Nov-08 16:58N 50°43' W 001°59'0 0.0
2017-Nov-08 16:28N 50°43' W 001°59'0 0.0
2017-Nov-08 15:58N 50°43' W 001°59'0 0.0
2017-Nov-08 15:28N 50°43' W 001°59'0 0.0
2017-Nov-08 14:58N 50°43' W 001°59'0 0.0
2017-Nov-08 14:28N 50°43' W 001°59'0 0.0
2017-Nov-08 13:58N 50°43' W 001°59'0 0.0
2017-Nov-08 13:28N 50°43' W 001°59'0 0.0
2017-Nov-08 12:58N 50°43' W 001°59'0 0.0
2017-Nov-08 12:28N 50°43' W 001°59'0 0.0
2017-Nov-08 11:58N 50°43' W 001°59'0 0.0
2017-Nov-08 11:28N 50°43' W 001°59'0 0.0
2017-Nov-08 10:58N 50°43' W 001°59'0 0.0
2017-Nov-08 10:25N 50°43' W 001°59'0 0.0
2017-Nov-08 09:52N 50°43' W 001°59'0 0.0
2017-Nov-08 09:28N 50°43' W 001°59'0 0.0
2017-Nov-08 08:58N 50°43' W 001°59'0 0.0
2017-Nov-08 08:25N 50°43' W 001°59'0 0.0
2017-Nov-08 07:58N 50°43' W 001°59'0 0.0
2017-Nov-08 07:28N 50°43' W 001°59'0 0.0
2017-Nov-08 06:58N 50°43' W 001°59'0 0.0
2017-Nov-08 06:28N 50°43' W 001°59'0 0.0
2017-Nov-08 05:58N 50°43' W 001°59'0 0.0
2017-Nov-08 05:28N 50°43' W 001°59'0 0.0
2017-Nov-08 04:58N 50°43' W 001°59'0 0.0
2017-Nov-08 04:25N 50°43' W 001°59'0 0.0
2017-Nov-08 03:58N 50°43' W 001°59'0 0.0
2017-Nov-08 03:28N 50°43' W 001°59'0 0.0
2017-Nov-08 02:58N 50°43' W 001°59'0 0.0
2017-Nov-08 02:28N 50°43' W 001°59'0 0.0
2017-Nov-08 01:58N 50°43' W 001°59'0 0.0
2017-Nov-08 01:28N 50°43' W 001°59'0 0.0
2017-Nov-08 00:58N 50°43' W 001°59'0 0.0
2017-Nov-08 00:28N 50°43' W 001°59'0 0.0
2017-Nov-07 23:58N 50°43' W 001°59'0 0.0
2017-Nov-07 23:28N 50°43' W 001°59'0 0.0
2017-Nov-07 22:58N 50°43' W 001°59'0 0.0
2017-Nov-07 22:28N 50°43' W 001°59'0 0.0
2017-Nov-07 21:55N 50°43' W 001°59'0 0.0
2017-Nov-07 21:28N 50°43' W 001°59'0 0.0
2017-Nov-07 20:58N 50°43' W 001°59'0 0.0
2017-Nov-07 20:28N 50°43' W 001°59'0 0.0
2017-Nov-07 19:58N 50°43' W 001°59'0 0.0
2017-Nov-07 19:28N 50°43' W 001°59'0 0.0
2017-Nov-07 18:58N 50°43' W 001°59'0 0.0
2017-Nov-07 18:28N 50°43' W 001°59'0 0.0
2017-Nov-07 17:58N 50°43' W 001°59'0 0.0
2017-Nov-07 17:28N 50°43' W 001°59'0 0.0
2017-Nov-07 16:55N 50°43' W 001°59'0 0.0
2017-Nov-07 16:22N 50°43' W 001°59'0 0.0
2017-Nov-07 15:49N 50°43' W 001°59'0 0.0
2017-Nov-07 15:28N 50°43' W 001°59'0 0.0
2017-Nov-07 14:58N 50°43' W 001°59'0 0.0
2017-Nov-07 14:28N 50°43' W 001°59'0 0.0
2017-Nov-07 13:58N 50°43' W 001°59'0 0.0
2017-Nov-07 13:28N 50°43' W 001°59'0 0.0
2017-Nov-07 12:58N 50°43' W 001°59'0 0.0
2017-Nov-07 12:22N 50°43' W 001°59'0 0.0
2017-Nov-07 11:58N 50°43' W 001°59'0 0.0
2017-Nov-07 11:22N 50°43' W 001°59'0 0.0
2017-Nov-07 10:55N 50°43' W 001°59'0 0.0
2017-Nov-07 10:28N 50°43' W 001°59'0 0.2
2017-Nov-07 10:00N 50°43' W 001°59'2 4.0
2017-Nov-07 09:30N 50°41' W 001°57'4 8.3
2017-Nov-07 09:00N 50°37' W 001°54'611.6
2017-Nov-07 08:30N 50°33' W 001°60'2210.1
2017-Nov-07 06:19N 50°26' W 002°33'3 9.7
2017-Nov-07 06:01N 50°25' W 002°37'5 9.6
2017-Nov-07 05:31N 50°24' W 002°44'5 9.6
2017-Nov-07 05:00N 50°22' W 002°52'5 9.6
2017-Nov-07 04:30N 50°20' W 002°59'5 9.7
2017-Nov-07 04:00N 50°19' W 003°06'5 9.7
2017-Nov-07 03:30N 50°17' W 003°13'5 9.8
2017-Nov-07 03:00N 50°15' W 003°20'5 9.7
2017-Nov-07 02:30N 50°13' W 003°27'5 9.7
2017-Nov-07 02:00N 50°12' W 003°34'5 9.2
2017-Nov-07 01:30N 50°10' W 003°41'5 9.3
2017-Nov-07 01:00N 50°09' W 003°48'5 9.9
2017-Nov-07 00:28N 50°07' W 003°55'510.0
2017-Nov-07 00:01N 50°06' W 004°02'510.1
2017-Nov-06 23:30N 50°05' W 004°10'510.0
2017-Nov-06 23:00N 50°03' W 004°18'  

Dump ship's entire track history